Terminal Aerodrome Forecast
Issued by NWS Green Bay, WI

Home | Current Version | Previous Version | Graphics & Text | Print | Product List | Glossary On
Versions: 1 2 3 4 5 6 7 8 9 10 11 12 13 14 15 16 17 18 19 20 21 22 23 24 25 26 27 28 29 30 31 32 33 34 35 36 37 38 39 40 41 42 43 44
661
FTUS43 KGRB 181405 AAB
TAFGRB
TAF AMD
KGRB 181405Z 1814/1912 21006KT P6SM SCT045
      TEMPO 1814/1816 BKN040
     FM181700 21010G17KT P6SM BKN140
     FM182300 24005KT P6SM VCSH SCT040 BKN080
      TEMPO 1900/1904 3SM TSRA BKN030CB
     FM190500 34007KT P6SM VCSH SCT015 BKN060=

USA.gov is the U.S. government's official web portal to all federal, state and local government web resources and services.